Airfield :
LOGIN :

Register | Disclaimer

   EN    FR    IT 

 










Legend :    VFR   Marginal VFR   IFR   Intensive IFR   Very Intensive IFR
Visi :
Ceiling :
>= 8 km
>= 3000ft
5 to 8 km
1000 to 3000 ft
1500m to 5 km
500 to 1000 ft
800 to 1500m
200 to 500 ft
< 800m
< 200 ft
Symbols :   Thunderstorms  Fog  Heavy snow  Heavy precipitations  Wind > 20 kt
SIGMETs :     Misc.  Thunderstorms  Icing  Turbulence  Mountain Waves  Volcanic Ashes







- Airport Elevation : 144 ft
- IATA code : PGF
- Download approach charts


LFMP - Perpignan

CURRENT METAR :
  • 131530Z AUTO 32006KT 7000 -RA OVC016 07/06 Q1005 TEMPO 02012KT 3000 -RA OVC008

EXPIRED METARs :
  • 131500Z AUTO 32007KT 6000 RA OVC016/// ///TCU 07/06 Q1005 TEMPO 02012KT 3000 -RA OVC008
  • 131430Z AUTO 33006KT 5000 RA BR OVC015/// ///TCU 07/06 Q1005 TEMPO NSW OVC008
  • 131400Z AUTO 31006KT 9999 -RA OVC014 07/05 Q1005 TEMPO 4000 -RA BR
  • 131330Z AUTO 31007KT 9999 -RA OVC012 07/06 Q1005 TEMPO 4000 -RA BR
  • 131300Z AUTO 28004KT 9000 -RA OVC013 08/06 Q1005 TEMPO 4000 -RA BR

TAF TAF LFMP
Valid from the 13 at 15:00 until the 14 at 15:00 UTC


131400Z 1315/1415 32007KT 9999 OVC016
TEMPO 1315/1404 02012KT 3000 -RA OVC008
BECMG 1406/1408 BKN050
BECMG 1413/1415 31015G35KT
ATIS : +33 4 68 63 75 12
No reported NOTAMs for that airfield.



MET'MAP, your aeronautical weather chart ! - Copyright ORBIFLY December 2007 - Disclaimer

ORBIFLY MET'MAP TEAM :

Programming & Development : Alexandra Zaïnal
Concept & Development : Baudouin d'Aumeries
Co-Development & Prog : Marc-Olivier Méhu
Technical & hardware support : Manuel Goepfert

Contact : metmap@orbifly.com




SOURCES & CREDITS :

   NOAA